Terminal Aerodrome Forecast
Issued by NWS

Home | Current Version | Previous Version | Text Only | Print | Product List | Glossary On
Versions: 1 2 3 4 5 6 7 8 9 10 11 12 13 14 15 16 17 18 19 20 21 22 23 24 25
000
FTAK31 PANC 031732
TAFAVD
TAF
PAVD 031732Z 0318/0418 00000KT 3SM -SN SCT015 OVC025
      TEMPO 0318/0322 1 1/2SM -SN OVC015
     FM032300 00000KT 6SM -RASN SCT015 OVC030
     FM041200 00000KT P6SM -SHRASN SCT025 OVC040
      AMD LTD TO CLD VIS AND WIND=

USA.gov is the U.S. government's official web portal to all federal, state and local government web resources and services.